createdAt,value
2018-03-06T00:00:23.208Z,3.39
2018-03-06T00:01:23.197Z,3.31
2018-03-06T00:02:23.176Z,3.32
2018-03-06T00:03:23.145Z,3.29
2018-03-06T00:04:23.124Z,3.32
2018-03-06T00:05:23.100Z,3.32
2018-03-06T00:06:23.080Z,3.26
2018-03-06T00:07:23.065Z,3.33
2018-03-06T00:08:23.071Z,3.28
2018-03-06T00:09:23.017Z,3.33
2018-03-06T00:10:22.993Z,3.33
2018-03-06T00:11:22.972Z,3.43
2018-03-06T00:12:22.957Z,3.26
2018-03-06T00:13:22.932Z,3.33
2018-03-06T00:14:22.948Z,3.23
2018-03-06T00:15:22.887Z,3.17
2018-03-06T00:16:22.870Z,3.14
2018-03-06T00:17:22.842Z,3.14
2018-03-06T00:18:22.825Z,3.13
2018-03-06T00:19:22.803Z,3.08
2018-03-06T00:20:22.780Z,3.06
2018-03-06T00:21:22.757Z,3.05
2018-03-06T00:22:22.738Z,3.14
2018-03-06T00:23:22.715Z,3.06
2018-03-06T00:24:22.739Z,3.10
2018-03-06T00:25:22.677Z,3.05
2018-03-06T00:26:22.670Z,2.96
2018-03-06T00:27:22.628Z,3.02
2018-03-06T00:28:22.604Z,2.96
2018-03-06T00:29:22.589Z,2.96
2018-03-06T00:30:22.574Z,2.95
2018-03-06T00:31:22.542Z,2.97
2018-03-06T00:32:22.575Z,3.00
2018-03-06T00:33:22.501Z,2.97
2018-03-06T00:34:22.478Z,2.97
2018-03-06T00:35:22.457Z,2.93
2018-03-06T00:36:22.441Z,3.02
2018-03-06T00:37:22.418Z,2.96
2018-03-06T00:38:22.430Z,2.93
2018-03-06T00:39:22.369Z,2.99
2018-03-06T00:40:22.347Z,3.02
2018-03-06T00:41:22.327Z,3.00
2018-03-06T00:42:22.304Z,2.99
2018-03-06T00:43:22.280Z,3.00
2018-03-06T00:44:22.296Z,2.95
2018-03-06T00:45:22.237Z,2.87
2018-03-06T00:46:22.220Z,2.92
2018-03-06T00:47:22.196Z,2.90
2018-03-06T00:48:22.177Z,2.85
2018-03-06T00:49:22.157Z,2.82
2018-03-06T00:50:22.133Z,2.82
2018-03-06T00:51:22.114Z,2.89
2018-03-06T00:52:22.088Z,2.75
2018-03-06T00:53:22.065Z,2.87
2018-03-06T00:54:22.041Z,2.84
2018-03-06T00:55:22.026Z,2.77
2018-03-06T00:56:22.052Z,2.81
2018-03-06T00:57:21.981Z,2.75
2018-03-06T00:58:21.958Z,2.64
2018-03-06T00:59:21.936Z,2.74
2018-03-06T01:00:21.914Z,2.66
2018-03-06T01:01:21.888Z,2.69
2018-03-06T01:02:21.903Z,2.72
2018-03-06T01:03:21.846Z,2.67
2018-03-06T01:04:21.824Z,2.69
2018-03-06T01:05:21.802Z,2.63
2018-03-06T01:06:21.780Z,2.77
2018-03-06T01:07:21.757Z,2.67
2018-03-06T01:08:21.741Z,2.67
2018-03-06T01:09:21.716Z,2.72
2018-03-06T01:10:21.693Z,2.67
2018-03-06T01:11:21.672Z,2.74
2018-03-06T01:12:21.652Z,2.66
2018-03-06T01:13:21.628Z,2.71
2018-03-06T01:14:21.605Z,2.69
2018-03-06T01:15:21.582Z,2.67
2018-03-06T01:16:21.558Z,2.71
2018-03-06T01:17:21.538Z,2.61
2018-03-06T01:18:21.518Z,2.69
2018-03-06T01:19:21.498Z,2.64
2018-03-06T01:20:21.492Z,2.69
2018-03-06T01:21:21.455Z,2.59
2018-03-06T01:22:21.431Z,2.64
2018-03-06T01:23:21.407Z,2.60
2018-03-06T01:24:21.388Z,2.61
2018-03-06T01:25:21.367Z,2.72
2018-03-06T01:26:21.343Z,2.64
2018-03-06T01:27:21.324Z,2.72
2018-03-06T01:28:21.296Z,2.60
2018-03-06T01:29:21.276Z,2.66
2018-03-06T01:30:21.256Z,2.63
2018-03-06T01:31:21.236Z,2.61
2018-03-06T01:32:21.211Z,2.60
2018-03-06T01:33:21.189Z,2.57
2018-03-06T01:34:21.168Z,2.46
2018-03-06T01:35:21.145Z,2.48
2018-03-06T01:36:21.124Z,2.42
2018-03-06T01:37:21.105Z,2.39
2018-03-06T01:38:21.086Z,2.39
2018-03-06T01:39:21.060Z,2.31
2018-03-06T01:40:21.034Z,2.39
2018-03-06T01:41:21.018Z,2.42
2018-03-06T01:42:20.996Z,2.46
2018-03-06T01:43:20.968Z,2.46
2018-03-06T01:44:20.946Z,2.46
2018-03-06T01:45:20.928Z,2.46
2018-03-06T01:46:20.909Z,2.49
2018-03-06T01:47:20.884Z,2.48
2018-03-06T01:48:20.857Z,2.49
2018-03-06T01:49:20.837Z,2.60
2018-03-06T01:50:20.815Z,2.56
2018-03-06T01:51:20.796Z,2.56
2018-03-06T01:52:20.772Z,2.66
2018-03-06T01:53:20.747Z,2.66
2018-03-06T01:54:20.728Z,2.61
2018-03-06T01:55:20.705Z,2.61
2018-03-06T01:56:20.687Z,2.59
2018-03-06T01:57:20.661Z,2.60
2018-03-06T01:58:20.642Z,2.60
2018-03-06T01:59:20.616Z,2.56
2018-03-06T02:00:20.602Z,2.56
2018-03-06T02:01:20.576Z,2.45
2018-03-06T02:02:20.549Z,2.52
2018-03-06T02:03:20.534Z,2.46
2018-03-06T02:04:20.508Z,2.48
2018-03-06T02:05:20.492Z,2.43
2018-03-06T02:06:20.462Z,2.34
2018-03-06T02:07:20.451Z,2.45
2018-03-06T02:08:20.419Z,2.28
2018-03-06T02:09:20.397Z,2.30
2018-03-06T02:10:20.374Z,2.34
2018-03-06T02:11:20.355Z,2.35
2018-03-06T02:12:20.328Z,2.34
2018-03-06T02:13:20.308Z,2.28
2018-03-06T02:14:20.291Z,2.30
2018-03-06T02:15:20.268Z,2.31
2018-03-06T02:16:20.247Z,2.35
2018-03-06T02:17:20.220Z,2.36
2018-03-06T02:18:20.201Z,2.27
2018-03-06T02:19:20.178Z,2.35
2018-03-06T02:20:20.162Z,2.30
2018-03-06T02:21:20.133Z,2.23
2018-03-06T02:22:20.115Z,2.20
2018-03-06T02:23:20.090Z,2.16
2018-03-06T02:24:20.065Z,2.12
2018-03-06T02:25:20.042Z,2.05
2018-03-06T02:26:20.030Z,2.03
2018-03-06T02:27:20.007Z,2.03
2018-03-06T02:28:19.980Z,1.84
2018-03-06T02:29:19.959Z,1.81
2018-03-06T02:30:19.942Z,1.79
2018-03-06T02:31:19.911Z,1.66
2018-03-06T02:32:19.888Z,1.63
2018-03-06T02:33:19.868Z,1.48
2018-03-06T02:34:19.844Z,1.50
2018-03-06T02:35:19.821Z,1.42
2018-03-06T02:36:19.801Z,1.47
2018-03-06T02:37:19.777Z,1.44
2018-03-06T02:38:19.756Z,1.48
2018-03-06T02:39:19.733Z,1.50
2018-03-06T02:40:19.717Z,1.51
2018-03-06T02:41:19.688Z,1.48
2018-03-06T02:42:19.666Z,1.51
2018-03-06T02:43:19.644Z,1.58
2018-03-06T02:44:19.624Z,1.59
2018-03-06T02:45:19.598Z,1.69
2018-03-06T02:46:19.577Z,1.68
2018-03-06T02:47:19.558Z,1.69
2018-03-06T02:48:19.534Z,1.66
2018-03-06T02:49:19.510Z,1.62
2018-03-06T02:50:19.488Z,1.54
2018-03-06T02:51:19.468Z,1.54
2018-03-06T02:52:19.445Z,1.47
2018-03-06T02:53:19.423Z,1.37
2018-03-06T02:54:19.402Z,1.23
2018-03-06T02:55:19.375Z,1.06
2018-03-06T02:56:19.353Z,1.22
2018-03-06T02:57:19.333Z,1.06
2018-03-06T02:58:19.313Z,1.11
2018-03-06T02:59:19.287Z,1.16
2018-03-06T03:00:19.265Z,1.14
2018-03-06T03:01:19.244Z,1.14
2018-03-06T03:02:19.218Z,1.06
2018-03-06T03:03:19.197Z,0.88
2018-03-06T03:04:19.178Z,1.05
2018-03-06T03:05:19.152Z,1.04
2018-03-06T03:06:19.130Z,1.00
2018-03-06T03:07:19.106Z,0.87
2018-03-06T03:08:19.090Z,0.86
2018-03-06T03:09:19.066Z,0.88
2018-03-06T03:10:19.042Z,0.94
2018-03-06T03:11:19.020Z,1.02
2018-03-06T03:12:18.994Z,0.97
2018-03-06T03:13:18.973Z,1.08
2018-03-06T03:14:18.949Z,1.12
2018-03-06T03:15:18.928Z,1.18
2018-03-06T03:16:18.905Z,1.26
2018-03-06T03:17:18.886Z,1.32
2018-03-06T03:18:18.859Z,1.40
2018-03-06T03:19:18.839Z,1.45
2018-03-06T03:20:18.820Z,1.48
2018-03-06T03:21:18.803Z,1.62
2018-03-06T03:22:18.773Z,1.62
2018-03-06T03:23:18.750Z,1.65
2018-03-06T03:24:18.724Z,1.76
2018-03-06T03:25:18.707Z,1.65
2018-03-06T03:26:18.684Z,1.73
2018-03-06T03:27:18.661Z,1.76
2018-03-06T03:28:18.633Z,1.81
2018-03-06T03:29:18.614Z,1.81
2018-03-06T03:30:18.595Z,1.83
2018-03-06T03:31:18.568Z,1.83
2018-03-06T03:32:18.546Z,1.87
2018-03-06T03:33:18.522Z,1.87
2018-03-06T03:34:18.502Z,1.95
2018-03-06T03:35:18.479Z,1.84
2018-03-06T03:36:18.456Z,1.88
2018-03-06T03:37:18.482Z,1.86
2018-03-06T03:38:18.410Z,1.91
2018-03-06T03:39:18.392Z,1.87
2018-03-06T03:40:18.368Z,1.87
2018-03-06T03:41:18.347Z,1.84
2018-03-06T03:42:18.372Z,1.83
2018-03-06T03:43:18.298Z,1.88
2018-03-06T03:44:18.278Z,1.81
2018-03-06T03:45:18.262Z,1.80
2018-03-06T03:46:18.234Z,1.81
2018-03-06T03:47:18.209Z,1.81
2018-03-06T03:48:18.185Z,1.86
2018-03-06T03:49:18.162Z,1.84
2018-03-06T03:50:18.144Z,1.84
2018-03-06T03:51:18.130Z,1.79
2018-03-06T03:52:18.096Z,1.81
2018-03-06T03:53:18.077Z,1.77
2018-03-06T03:54:18.052Z,1.88
2018-03-06T03:55:18.029Z,1.83
2018-03-06T03:56:18.005Z,1.90
2018-03-06T03:57:17.986Z,1.86
2018-03-06T03:58:17.960Z,1.83
2018-03-06T03:59:17.940Z,1.73
2018-03-06T04:00:17.918Z,1.77
2018-03-06T04:01:17.892Z,1.77
2018-03-06T04:02:17.876Z,1.72
2018-03-06T04:03:17.903Z,1.60
2018-03-06T04:04:17.843Z,1.45
2018-03-06T04:05:17.805Z,1.50
2018-03-06T04:06:17.786Z,1.50
2018-03-06T04:07:17.759Z,1.44
2018-03-06T04:08:17.736Z,1.48
2018-03-06T04:09:17.713Z,1.48
2018-03-06T04:10:17.696Z,1.47
2018-03-06T04:11:17.667Z,1.40
2018-03-06T04:12:17.647Z,1.32
2018-03-06T04:13:17.624Z,1.22
2018-03-06T04:14:17.611Z,1.27
2018-03-06T04:15:17.581Z,1.37
2018-03-06T04:16:17.557Z,1.27
2018-03-06T04:17:17.543Z,1.36
2018-03-06T04:18:17.513Z,1.34
2018-03-06T04:19:17.487Z,1.36
2018-03-06T04:20:17.467Z,1.42
2018-03-06T04:21:17.443Z,1.26
2018-03-06T04:22:17.421Z,1.29
2018-03-06T04:23:17.396Z,1.20
2018-03-06T04:24:17.410Z,1.24
2018-03-06T04:25:17.355Z,1.41
2018-03-06T04:26:17.328Z,1.34
2018-03-06T04:27:17.310Z,1.47
2018-03-06T04:28:17.283Z,1.50
2018-03-06T04:29:17.259Z,1.44
2018-03-06T04:30:17.248Z,1.48
2018-03-06T04:31:17.215Z,1.44
2018-03-06T04:32:17.198Z,1.47
2018-03-06T04:33:17.169Z,1.51
2018-03-06T04:34:17.159Z,1.45
2018-03-06T04:35:17.124Z,1.52
2018-03-06T04:36:17.102Z,1.51
2018-03-06T04:37:17.081Z,1.50
2018-03-06T04:38:17.059Z,1.50
2018-03-06T04:39:17.037Z,1.52
2018-03-06T04:40:17.022Z,1.52
2018-03-06T04:41:16.993Z,1.50
2018-03-06T04:42:16.967Z,1.62
2018-03-06T04:43:16.945Z,1.62
2018-03-06T04:44:16.919Z,1.50
2018-03-06T04:45:16.901Z,1.47
2018-03-06T04:46:16.922Z,1.50
2018-03-06T04:47:16.857Z,1.47
2018-03-06T04:48:16.831Z,1.51
2018-03-06T04:49:16.808Z,1.51
2018-03-06T04:50:16.787Z,1.51
2018-03-06T04:51:16.765Z,1.42
2018-03-06T04:52:16.737Z,1.48
2018-03-06T04:53:16.717Z,1.41
2018-03-06T04:54:16.697Z,1.37
2018-03-06T04:55:16.670Z,1.50
2018-03-06T04:56:16.650Z,1.54
2018-03-06T04:57:16.628Z,1.33
2018-03-06T04:58:16.603Z,1.34
2018-03-06T04:59:16.581Z,1.37
2018-03-06T05:00:16.557Z,1.34
2018-03-06T05:01:16.537Z,1.36
2018-03-06T05:02:16.516Z,1.32
2018-03-06T05:03:16.497Z,1.37
2018-03-06T05:04:16.468Z,1.37
2018-03-06T05:05:16.446Z,1.42
2018-03-06T05:06:16.431Z,1.36
2018-03-06T05:07:16.397Z,1.36
2018-03-06T05:08:16.375Z,1.40
2018-03-06T05:09:16.356Z,1.33
2018-03-06T05:10:16.334Z,1.40
2018-03-06T05:11:16.307Z,1.33
2018-03-06T05:12:16.289Z,1.44
2018-03-06T05:13:16.274Z,1.40
2018-03-06T05:14:16.246Z,1.33
2018-03-06T05:15:16.218Z,1.36
2018-03-06T05:16:16.198Z,1.20
2018-03-06T05:17:16.176Z,1.09
2018-03-06T05:18:16.148Z,1.06
2018-03-06T05:19:16.128Z,1.09
2018-03-06T05:20:16.102Z,1.11
2018-03-06T05:21:16.081Z,1.05
2018-03-06T05:22:16.060Z,1.08
2018-03-06T05:23:16.035Z,1.06
2018-03-06T05:24:16.017Z,1.04
2018-03-06T05:25:15.991Z,1.05
2018-03-06T05:26:15.967Z,1.09
2018-03-06T05:27:15.944Z,1.09
2018-03-06T05:28:15.921Z,1.06
2018-03-06T05:29:15.898Z,1.14
2018-03-06T05:30:15.878Z,1.16
2018-03-06T05:31:15.851Z,1.11
2018-03-06T05:32:15.827Z,1.08
2018-03-06T05:33:15.810Z,1.12
2018-03-06T05:34:15.786Z,1.18
2018-03-06T05:35:15.764Z,1.29
2018-03-06T05:36:15.737Z,1.24
2018-03-06T05:37:15.714Z,1.23
2018-03-06T05:38:15.692Z,1.27
2018-03-06T05:39:15.673Z,1.16
2018-03-06T05:40:15.647Z,1.30
2018-03-06T05:41:15.638Z,1.22
2018-03-06T05:42:15.603Z,1.24
2018-03-06T05:43:15.581Z,1.32
2018-03-06T05:44:15.554Z,1.41
2018-03-06T05:45:15.531Z,1.44
2018-03-06T05:46:15.520Z,1.34
2018-03-06T05:47:15.496Z,1.37
2018-03-06T05:48:15.464Z,1.40
2018-03-06T05:49:15.448Z,1.40
2018-03-06T05:50:15.424Z,1.34
2018-03-06T05:51:15.398Z,1.37
2018-03-06T05:52:15.376Z,1.40
2018-03-06T05:53:15.352Z,1.42
2018-03-06T05:54:15.332Z,1.34
2018-03-06T05:55:15.314Z,1.36
2018-03-06T05:56:15.283Z,1.37
2018-03-06T05:57:15.263Z,1.29
2018-03-06T05:58:15.237Z,1.30
2018-03-06T05:59:15.215Z,1.27
2018-03-06T06:00:15.197Z,1.26
2018-03-06T06:01:15.168Z,1.18
2018-03-06T06:02:15.149Z,1.20
2018-03-06T06:03:15.132Z,1.20
2018-03-06T06:04:15.103Z,1.16
2018-03-06T06:05:15.082Z,1.08
2018-03-06T06:06:15.054Z,1.11
2018-03-06T06:07:15.038Z,1.12
2018-03-06T06:08:15.009Z,1.14
2018-03-06T06:09:14.989Z,1.09
2018-03-06T06:10:14.964Z,1.16
2018-03-06T06:11:14.944Z,1.22
2018-03-06T06:12:14.918Z,1.16
2018-03-06T06:13:14.892Z,1.08
2018-03-06T06:14:14.869Z,1.26
2018-03-06T06:15:14.850Z,1.29
2018-03-06T06:16:14.828Z,1.20
2018-03-06T06:17:14.807Z,1.16
2018-03-06T06:18:14.781Z,1.33
2018-03-06T06:19:14.769Z,1.29
2018-03-06T06:20:14.734Z,1.37
2018-03-06T06:21:14.709Z,1.29
2018-03-06T06:22:14.687Z,1.26
2018-03-06T06:23:14.666Z,1.06
2018-03-06T06:24:14.646Z,0.94
2018-03-06T06:25:14.618Z,0.79
2018-03-06T06:26:14.598Z,0.69
2018-03-06T06:27:14.575Z,0.75
2018-03-06T06:28:14.553Z,0.73
2018-03-06T06:29:14.528Z,0.69
2018-03-06T06:30:14.504Z,0.68
2018-03-06T06:31:14.488Z,0.80
2018-03-06T06:32:14.457Z,0.94
2018-03-06T06:33:14.434Z,0.90
2018-03-06T06:34:14.412Z,0.88
2018-03-06T06:35:14.393Z,1.04
2018-03-06T06:36:14.368Z,1.00
2018-03-06T06:37:14.346Z,0.94
2018-03-06T06:38:14.329Z,0.94
2018-03-06T06:39:14.339Z,0.93
2018-03-06T06:40:14.273Z,1.06
2018-03-06T06:41:14.258Z,1.05
2018-03-06T06:42:14.235Z,1.09
2018-03-06T06:43:14.206Z,1.08
2018-03-06T06:44:14.188Z,1.08
2018-03-06T06:45:14.166Z,1.22
2018-03-06T06:46:14.141Z,1.20
2018-03-06T06:47:14.117Z,1.34
2018-03-06T06:48:14.093Z,1.33
2018-03-06T06:49:14.080Z,1.37
2018-03-06T06:50:14.047Z,1.41
2018-03-06T06:51:14.030Z,1.50
2018-03-06T06:52:13.999Z,1.48
2018-03-06T06:53:13.980Z,1.60
2018-03-06T06:54:13.961Z,1.62
2018-03-06T06:55:13.935Z,1.66
2018-03-06T06:56:13.907Z,1.76
2018-03-06T06:57:13.885Z,1.81
2018-03-06T06:58:13.866Z,1.81
2018-03-06T06:59:13.844Z,1.77
2018-03-06T07:00:13.816Z,1.79
2018-03-06T07:01:13.797Z,1.87
2018-03-06T07:02:13.775Z,1.86
2018-03-06T07:03:13.753Z,1.93
2018-03-06T07:04:13.729Z,1.98
2018-03-06T07:05:13.705Z,1.93
2018-03-06T07:06:13.697Z,1.86
2018-03-06T07:07:13.661Z,1.80
2018-03-06T07:08:13.637Z,1.79
2018-03-06T07:09:13.611Z,1.69
2018-03-06T07:10:13.591Z,1.69
2018-03-06T07:11:13.567Z,1.68
2018-03-06T07:12:13.543Z,1.66
2018-03-06T07:13:13.563Z,1.77
2018-03-06T07:14:13.499Z,1.65
2018-03-06T07:15:13.478Z,1.76
2018-03-06T07:16:13.459Z,1.88
2018-03-06T07:17:13.432Z,1.86
2018-03-06T07:18:13.408Z,1.86
2018-03-06T07:19:13.388Z,2.00
2018-03-06T07:20:13.364Z,1.99
2018-03-06T07:21:13.349Z,1.93
2018-03-06T07:22:13.318Z,1.87
2018-03-06T07:23:13.294Z,2.00
2018-03-06T07:24:13.279Z,1.99
2018-03-06T07:25:13.248Z,2.06
2018-03-06T07:26:13.226Z,2.14
2018-03-06T07:27:13.204Z,2.24
2018-03-06T07:28:13.180Z,2.20
2018-03-06T07:29:13.158Z,2.25
2018-03-06T07:30:13.141Z,2.42
2018-03-06T07:31:13.115Z,2.34
2018-03-06T07:32:13.098Z,2.42
2018-03-06T07:33:13.072Z,2.52
2018-03-06T07:34:13.047Z,2.49
2018-03-06T07:35:13.024Z,2.56
2018-03-06T07:36:13.016Z,2.52
2018-03-06T07:37:12.982Z,2.53
2018-03-06T07:38:12.960Z,2.46
2018-03-06T07:39:12.938Z,2.54
2018-03-06T07:40:12.915Z,2.66
2018-03-06T07:41:12.890Z,2.72
2018-03-06T07:42:12.868Z,2.69
2018-03-06T07:43:12.852Z,2.77
2018-03-06T07:44:12.818Z,2.63
2018-03-06T07:45:12.801Z,2.77
2018-03-06T07:46:12.779Z,2.81
2018-03-06T07:47:12.756Z,2.82
2018-03-06T07:48:12.740Z,2.84
2018-03-06T07:49:12.708Z,2.92
2018-03-06T07:50:12.692Z,2.90
2018-03-06T07:51:12.713Z,2.97
2018-03-06T07:52:12.647Z,2.97
2018-03-06T07:53:12.622Z,3.17
2018-03-06T07:54:12.596Z,3.13
2018-03-06T07:55:12.579Z,3.17
2018-03-06T07:56:12.552Z,3.28
2018-03-06T07:57:12.589Z,3.28
2018-03-06T07:58:12.513Z,3.31
2018-03-06T07:59:12.487Z,3.33
2018-03-06T08:00:12.471Z,3.31
2018-03-06T08:01:12.445Z,3.32
2018-03-06T08:02:12.419Z,3.48
2018-03-06T08:03:12.396Z,3.50
2018-03-06T08:04:12.383Z,3.48
2018-03-06T08:05:12.365Z,3.48
2018-03-06T08:06:12.336Z,3.45
2018-03-06T08:07:12.310Z,3.51
2018-03-06T08:08:12.285Z,3.51
2018-03-06T08:09:12.269Z,3.43
2018-03-06T08:10:12.242Z,3.55
2018-03-06T08:11:12.224Z,3.57
2018-03-06T08:12:12.216Z,3.60
2018-03-06T08:13:12.176Z,3.66
2018-03-06T08:14:12.157Z,3.70
2018-03-06T08:15:12.135Z,3.75
2018-03-06T08:16:12.112Z,3.84
2018-03-06T08:17:12.089Z,3.86
2018-03-06T08:18:12.069Z,3.86
2018-03-06T08:19:12.044Z,4.04
2018-03-06T08:20:12.022Z,4.00
2018-03-06T08:21:12.015Z,4.14
2018-03-06T08:22:11.980Z,4.18
2018-03-06T08:23:11.957Z,4.27
2018-03-06T08:24:11.937Z,4.33
2018-03-06T08:25:11.915Z,4.40
2018-03-06T08:26:11.891Z,4.44
2018-03-06T08:27:11.879Z,4.42
2018-03-06T08:28:11.847Z,4.45
2018-03-06T08:29:11.829Z,4.59
2018-03-06T08:30:11.805Z,4.62
2018-03-06T08:31:11.783Z,4.73
2018-03-06T08:32:11.762Z,4.65
2018-03-06T08:33:11.737Z,4.78
2018-03-06T08:34:11.719Z,4.82
2018-03-06T08:35:11.701Z,4.85
2018-03-06T08:36:11.681Z,4.97
2018-03-06T08:37:11.655Z,5.00
2018-03-06T08:38:11.631Z,5.04
2018-03-06T08:39:11.619Z,5.17
2018-03-06T08:40:11.593Z,5.21
2018-03-06T08:41:11.567Z,5.25
2018-03-06T08:42:11.551Z,5.36
2018-03-06T08:43:11.527Z,5.25
2018-03-06T08:44:11.502Z,5.48
2018-03-06T08:45:11.478Z,5.39
2018-03-06T08:46:11.457Z,5.51
2018-03-06T08:47:11.442Z,5.51
2018-03-06T08:48:11.417Z,5.65
2018-03-06T08:49:11.390Z,5.65
2018-03-06T08:50:11.369Z,5.63
2018-03-06T08:51:11.351Z,5.68
2018-03-06T08:52:11.340Z,5.81
2018-03-06T08:53:11.311Z,5.82
2018-03-06T08:54:11.283Z,5.79
2018-03-06T08:55:11.267Z,5.94
2018-03-06T08:56:11.242Z,5.99
2018-03-06T08:57:11.218Z,6.01
2018-03-06T08:58:11.208Z,6.04
2018-03-06T08:59:11.180Z,6.09
2018-03-06T09:00:11.153Z,6.14
2018-03-06T09:01:11.136Z,6.22
2018-03-06T09:02:11.117Z,6.21
2018-03-06T09:03:11.097Z,6.17
2018-03-06T09:04:11.068Z,6.21
2018-03-06T09:05:11.051Z,6.28
2018-03-06T09:06:11.039Z,6.30
2018-03-06T09:07:11.005Z,6.38
2018-03-06T09:08:10.981Z,6.37
2018-03-06T09:09:10.969Z,6.41
2018-03-06T09:10:10.935Z,6.66
2018-03-06T09:11:10.919Z,6.56
2018-03-06T09:12:10.941Z,6.66
2018-03-06T09:13:10.875Z,6.70
2018-03-06T09:14:10.852Z,6.73
2018-03-06T09:15:10.834Z,6.71
2018-03-06T09:16:10.813Z,6.69
2018-03-06T09:17:10.793Z,6.69
2018-03-06T09:18:10.768Z,6.77
2018-03-06T09:19:10.748Z,6.79
2018-03-06T09:20:10.730Z,6.85
2018-03-06T09:21:10.711Z,6.81
2018-03-06T09:22:10.683Z,6.80
2018-03-06T09:23:10.672Z,6.89
2018-03-06T09:24:10.642Z,6.87
2018-03-06T09:25:10.619Z,6.95
2018-03-06T09:26:10.606Z,6.97
2018-03-06T09:27:10.589Z,6.94
2018-03-06T09:28:10.559Z,7.09
2018-03-06T09:29:10.546Z,7.07
2018-03-06T09:30:10.514Z,7.16
2018-03-06T09:31:10.501Z,7.28
2018-03-06T09:32:10.476Z,7.24
2018-03-06T09:33:10.456Z,7.25
2018-03-06T09:34:10.438Z,7.30
2018-03-06T09:35:10.412Z,7.34
2018-03-06T09:36:10.392Z,7.34
2018-03-06T09:37:10.367Z,7.43
2018-03-06T09:38:10.351Z,7.39
2018-03-06T09:39:10.327Z,7.46
2018-03-06T09:40:10.308Z,7.50
2018-03-06T09:41:10.296Z,7.68
2018-03-06T09:42:10.270Z,7.64
2018-03-06T09:43:10.244Z,7.68
2018-03-06T09:44:10.227Z,7.68
2018-03-06T09:45:10.205Z,7.69
2018-03-06T09:46:10.183Z,7.69
2018-03-06T09:47:10.167Z,7.77
2018-03-06T09:48:10.138Z,7.83
2018-03-06T09:49:10.120Z,7.95
2018-03-06T09:50:10.101Z,7.92
2018-03-06T09:51:10.078Z,8.00
2018-03-06T09:52:10.058Z,8.00
2018-03-06T09:53:10.041Z,8.10
2018-03-06T09:54:10.016Z,8.12
2018-03-06T09:55:10.002Z,8.20
2018-03-06T09:56:09.978Z,8.20
2018-03-06T09:57:09.958Z,8.23
2018-03-06T09:58:09.936Z,8.33
2018-03-06T09:59:09.913Z,8.36
2018-03-06T10:00:09.904Z,8.43
2018-03-06T10:01:09.870Z,8.55
2018-03-06T10:02:09.853Z,8.58
2018-03-06T10:03:09.841Z,8.53
2018-03-06T10:04:09.816Z,8.65
2018-03-06T10:05:09.800Z,8.71
2018-03-06T10:06:09.771Z,8.80
2018-03-06T10:07:09.755Z,8.71
2018-03-06T10:08:09.749Z,8.84
2018-03-06T10:09:09.716Z,8.79
2018-03-06T10:10:09.699Z,8.89
2018-03-06T10:11:09.675Z,8.84
2018-03-06T10:12:09.652Z,8.95
2018-03-06T10:13:09.629Z,8.95
2018-03-06T10:14:09.609Z,9.02
2018-03-06T10:15:09.593Z,9.05
2018-03-06T10:16:09.569Z,9.11
2018-03-06T10:17:09.548Z,9.08
2018-03-06T10:18:09.536Z,9.18
2018-03-06T10:19:09.512Z,9.28
2018-03-06T10:20:09.488Z,9.28
2018-03-06T10:21:09.470Z,9.31
2018-03-06T10:22:09.459Z,9.36
2018-03-06T10:23:09.430Z,9.43
2018-03-06T10:24:09.407Z,9.53
2018-03-06T10:25:09.389Z,9.46
2018-03-06T10:26:09.370Z,9.58
2018-03-06T10:27:09.351Z,9.57
2018-03-06T10:28:09.373Z,9.56
2018-03-06T10:29:09.312Z,9.51
2018-03-06T10:30:09.293Z,9.60
2018-03-06T10:31:09.291Z,9.58
2018-03-06T10:32:09.256Z,9.66
2018-03-06T10:33:09.236Z,9.61
2018-03-06T10:34:09.221Z,9.64
2018-03-06T10:35:09.196Z,9.65
2018-03-06T10:36:09.171Z,9.75
2018-03-06T10:37:09.160Z,9.81
2018-03-06T10:38:09.141Z,9.83
2018-03-06T10:39:09.117Z,9.93
2018-03-06T10:40:09.096Z,9.89
2018-03-06T10:41:09.078Z,9.96
2018-03-06T10:42:09.058Z,10.05
2018-03-06T10:43:09.034Z,10.15
2018-03-06T10:44:09.018Z,10.18
2018-03-06T10:45:08.997Z,10.22
2018-03-06T10:46:08.977Z,10.18
2018-03-06T10:47:08.962Z,10.15
2018-03-06T10:48:08.936Z,10.14
2018-03-06T10:49:08.919Z,10.15
2018-03-06T10:50:08.911Z,10.18
2018-03-06T10:51:08.882Z,10.20
2018-03-06T10:52:08.864Z,10.27
2018-03-06T10:53:08.846Z,10.27
2018-03-06T10:54:08.826Z,10.41
2018-03-06T10:55:08.803Z,10.41
2018-03-06T10:56:08.782Z,10.42
2018-03-06T10:57:08.761Z,10.47
2018-03-06T10:58:08.742Z,10.44
2018-03-06T10:59:08.724Z,10.52
2018-03-06T11:00:08.707Z,10.63
2018-03-06T11:01:08.708Z,10.66
2018-03-06T11:02:08.705Z,10.74
2018-03-06T11:03:08.646Z,10.84
2018-03-06T11:04:08.626Z,10.88
2018-03-06T11:05:08.611Z,10.88
2018-03-06T11:06:08.587Z,11.03
2018-03-06T11:07:08.578Z,10.97
2018-03-06T11:08:08.576Z,10.99
2018-03-06T11:09:08.533Z,11.09
2018-03-06T11:10:08.511Z,11.06
2018-03-06T11:11:08.498Z,11.00
2018-03-06T11:12:08.472Z,11.10
2018-03-06T11:13:08.458Z,11.11
2018-03-06T11:14:08.439Z,11.06
2018-03-06T11:15:08.418Z,11.09
2018-03-06T11:16:08.405Z,10.96
2018-03-06T11:17:08.383Z,11.04
2018-03-06T11:18:08.362Z,11.02
2018-03-06T11:19:08.345Z,10.99
2018-03-06T11:20:08.322Z,10.92
2018-03-06T11:21:08.308Z,11.02
2018-03-06T11:22:08.284Z,11.03
2018-03-06T11:23:08.279Z,11.00
2018-03-06T11:24:08.250Z,11.03
2018-03-06T11:25:08.229Z,11.00
2018-03-06T11:26:08.215Z,11.02
2018-03-06T11:27:08.193Z,10.99
2018-03-06T11:28:08.176Z,11.03
2018-03-06T11:29:08.158Z,11.00
2018-03-06T11:30:08.137Z,11.11
2018-03-06T11:31:08.118Z,11.09
2018-03-06T11:32:08.097Z,11.14
2018-03-06T11:33:08.086Z,11.09
2018-03-06T11:34:08.066Z,11.11
2018-03-06T11:35:08.045Z,11.11
2018-03-06T11:36:08.032Z,11.11
2018-03-06T11:37:08.009Z,11.10
2018-03-06T11:38:07.987Z,11.14
2018-03-06T11:39:07.968Z,11.18
2018-03-06T11:40:07.959Z,11.27
2018-03-06T11:41:07.937Z,11.35
2018-03-06T11:42:07.908Z,11.33
2018-03-06T11:43:07.899Z,11.32
2018-03-06T11:44:07.872Z,11.33
2018-03-06T11:45:07.852Z,11.22
2018-03-06T11:46:07.836Z,11.28
2018-03-06T11:47:07.820Z,11.32
2018-03-06T11:48:07.800Z,11.28
2018-03-06T11:49:07.777Z,11.39
2018-03-06T11:50:07.762Z,11.39
2018-03-06T11:51:07.741Z,11.42
2018-03-06T11:52:07.720Z,11.42
2018-03-06T11:53:07.728Z,11.44
2018-03-06T11:54:07.694Z,11.49
2018-03-06T11:55:07.671Z,11.43
2018-03-06T11:56:07.647Z,11.42
2018-03-06T11:57:07.635Z,11.55
2018-03-06T11:58:07.614Z,11.51
2018-03-06T11:59:07.594Z,11.52
2018-03-06T12:00:07.578Z,11.52
2018-03-06T12:01:07.561Z,11.57
2018-03-06T12:02:07.596Z,11.57
2018-03-06T12:03:07.522Z,11.51
2018-03-06T12:04:07.504Z,11.55
2018-03-06T12:05:07.491Z,11.51
2018-03-06T12:06:07.475Z,11.47
2018-03-06T12:07:07.487Z,11.46
2018-03-06T12:08:07.427Z,11.47
2018-03-06T12:09:07.442Z,11.58
2018-03-06T12:10:07.426Z,11.46
2018-03-06T12:11:07.375Z,11.54
2018-03-06T12:12:07.352Z,11.44
2018-03-06T12:14:07.323Z,11.52
2018-03-06T12:15:07.297Z,11.57
2018-03-06T12:16:07.277Z,11.58
2018-03-06T12:17:07.257Z,11.55
2018-03-06T12:18:07.249Z,11.62
2018-03-06T12:19:07.224Z,11.62
2018-03-06T12:20:07.206Z,11.73
2018-03-06T12:21:07.184Z,11.72
2018-03-06T12:22:07.167Z,11.80
2018-03-06T12:23:07.147Z,11.72
2018-03-06T12:24:07.130Z,11.79
2018-03-06T12:25:07.115Z,11.75
2018-03-06T12:26:07.097Z,11.70
2018-03-06T12:27:07.074Z,11.70
2018-03-06T12:28:07.067Z,11.58
2018-03-06T12:29:07.039Z,11.58
2018-03-06T12:30:07.022Z,11.62
2018-03-06T12:31:07.004Z,11.55
2018-03-06T12:32:06.980Z,11.58
2018-03-06T12:33:06.964Z,11.60
2018-03-06T12:34:06.949Z,11.57
2018-03-06T12:35:06.940Z,11.60
2018-03-06T12:36:06.907Z,11.58
2018-03-06T12:37:06.897Z,11.67
2018-03-06T12:38:06.873Z,11.70
2018-03-06T12:39:06.855Z,11.75
2018-03-06T12:40:06.837Z,11.69
2018-03-06T12:41:06.816Z,11.64
2018-03-06T12:42:06.803Z,11.80
2018-03-06T12:43:06.779Z,11.82
2018-03-06T12:44:06.761Z,11.90
2018-03-06T12:45:06.749Z,11.86
2018-03-06T12:46:06.722Z,11.86
2018-03-06T12:47:06.704Z,11.85
2018-03-06T12:48:06.688Z,11.94
2018-03-06T12:49:06.671Z,11.85
2018-03-06T12:50:06.652Z,11.90
2018-03-06T12:51:06.636Z,11.98
2018-03-06T12:52:06.627Z,11.99
2018-03-06T12:53:06.595Z,12.02
2018-03-06T12:54:06.577Z,12.02
2018-03-06T12:55:06.556Z,11.94
2018-03-06T12:56:06.542Z,12.04
2018-03-06T12:57:06.527Z,11.96
2018-03-06T12:58:06.508Z,12.04
2018-03-06T12:59:06.485Z,12.02
2018-03-06T13:00:06.478Z,11.99
2018-03-06T13:01:06.446Z,11.99
2018-03-06T13:02:06.427Z,12.05
2018-03-06T13:03:06.415Z,11.99
2018-03-06T13:04:06.395Z,12.07
2018-03-06T13:05:06.381Z,12.07
2018-03-06T13:06:06.357Z,12.10
2018-03-06T13:07:06.337Z,12.05
2018-03-06T13:08:06.317Z,12.13
2018-03-06T13:09:06.299Z,12.10
2018-03-06T13:10:06.285Z,12.12
2018-03-06T13:11:06.262Z,12.10
2018-03-06T13:12:06.246Z,12.12
2018-03-06T13:13:06.234Z,11.99
2018-03-06T13:14:06.209Z,12.05